createdAt,value
2019-06-20T00:00:48.499Z,15.24
2019-06-20T00:03:21.616Z,15.22
2019-06-20T00:05:52.739Z,15.39
2019-06-20T00:08:23.044Z,15.37
2019-06-20T00:10:53.470Z,15.39
2019-06-20T00:13:23.799Z,15.28
2019-06-20T00:15:53.962Z,15.16
2019-06-20T00:18:24.375Z,15.25
2019-06-20T00:20:54.659Z,15.20
2019-06-20T00:23:24.895Z,15.14
2019-06-20T00:25:55.098Z,15.10
2019-06-20T00:28:25.293Z,15.08
2019-06-20T00:30:55.604Z,15.23
2019-06-20T00:33:25.788Z,15.06
2019-06-20T00:35:55.955Z,15.18
2019-06-20T00:38:26.189Z,15.07
2019-06-20T00:40:58.057Z,15.11
2019-06-20T00:43:28.523Z,15.00
2019-06-20T00:46:02.002Z,15.15
2019-06-20T00:48:32.614Z,15.02
2019-06-20T00:51:03.024Z,14.99
2019-06-20T00:53:33.271Z,15.02
2019-06-20T00:56:06.333Z,15.01
2019-06-20T00:58:38.863Z,14.99
2019-06-20T01:01:09.180Z,14.99
2019-06-20T01:03:39.547Z,14.93
2019-06-20T01:06:09.948Z,14.92
2019-06-20T01:08:40.080Z,14.89
2019-06-20T01:11:10.250Z,14.88
2019-06-20T01:13:40.524Z,14.93
2019-06-20T01:16:10.785Z,15.01
2019-06-20T01:18:41.194Z,14.84
2019-06-20T01:21:12.051Z,14.97
2019-06-20T01:23:42.344Z,14.99
2019-06-20T01:26:13.055Z,15.01
2019-06-20T01:28:45.073Z,14.85
2019-06-20T01:31:15.496Z,14.79
2019-06-20T01:33:45.711Z,14.79
2019-06-20T01:36:16.043Z,14.97
2019-06-20T01:38:46.260Z,14.84
2019-06-20T01:41:17.091Z,14.82
2019-06-20T01:43:50.849Z,14.84
2019-06-20T01:46:19.359Z,14.85
2019-06-20T01:48:49.641Z,14.97
2019-06-20T01:51:19.912Z,14.90
2019-06-20T01:53:50.160Z,14.85
2019-06-20T01:56:22.707Z,14.91
2019-06-20T01:58:53.086Z,14.85
2019-06-20T02:01:23.465Z,14.80
2019-06-20T02:03:53.709Z,14.93
2019-06-20T02:06:23.998Z,14.89
2019-06-20T02:08:54.247Z,14.95
2019-06-20T02:11:24.972Z,14.86
2019-06-20T02:14:06.774Z,14.93
2019-06-20T02:16:27.106Z,14.85
2019-06-20T02:18:57.186Z,14.91
2019-06-20T02:21:30.464Z,14.95
2019-06-20T02:24:05.225Z,14.96
2019-06-20T02:26:52.496Z,14.91
2019-06-20T02:29:26.642Z,15.01
2019-06-20T02:31:59.154Z,15.04
2019-06-20T02:34:30.498Z,14.94
2019-06-20T02:37:01.477Z,15.00
2019-06-20T02:39:32.154Z,14.97
2019-06-20T02:42:05.440Z,15.00
2019-06-20T02:44:36.223Z,14.95
2019-06-20T02:47:06.674Z,15.04
2019-06-20T02:49:37.377Z,15.03
2019-06-20T02:52:09.869Z,15.03
2019-06-20T02:54:41.064Z,15.12
2019-06-20T02:57:11.590Z,15.08
2019-06-20T02:59:42.214Z,15.15
2019-06-20T03:02:12.847Z,15.06
2019-06-20T03:04:45.648Z,15.12
2019-06-20T03:07:15.429Z,15.06
2019-06-20T03:09:48.449Z,15.18
2019-06-20T03:12:19.000Z,15.24
2019-06-20T03:14:51.941Z,15.21
2019-06-20T03:17:22.426Z,15.18
2019-06-20T03:19:53.347Z,15.11
2019-06-20T03:22:26.297Z,15.10
2019-06-20T03:24:59.292Z,15.02
2019-06-20T03:27:29.500Z,15.02
2019-06-20T03:29:59.919Z,14.99
2019-06-20T03:32:30.654Z,14.96
2019-06-20T03:35:00.860Z,15.01
2019-06-20T03:37:33.083Z,15.07
2019-06-20T03:40:06.603Z,15.13
2019-06-20T03:42:38.069Z,14.99
2019-06-20T03:45:09.052Z,15.11
2019-06-20T03:47:42.490Z,15.12
2019-06-20T03:50:14.404Z,15.00
2019-06-20T03:52:47.701Z,15.05
2019-06-20T03:55:18.539Z,15.13
2019-06-20T03:57:51.491Z,15.16
2019-06-20T04:00:23.509Z,15.14
2019-06-20T04:02:54.620Z,15.22
2019-06-20T04:05:26.247Z,15.06
2019-06-20T04:07:57.188Z,15.11
2019-06-20T04:10:28.143Z,14.96
2019-06-20T04:12:58.936Z,15.02
2019-06-20T04:15:31.000Z,14.99
2019-06-20T04:18:01.808Z,15.02
2019-06-20T04:20:33.420Z,15.16
2019-06-20T04:23:06.467Z,15.08
2019-06-20T04:25:38.033Z,15.21
2019-06-20T04:28:08.815Z,15.17
2019-06-20T04:30:39.387Z,15.23
2019-06-20T04:33:10.051Z,15.29
2019-06-20T04:36:35.005Z,15.11
2019-06-20T04:39:19.247Z,15.18
2019-06-20T04:41:49.657Z,15.31
2019-06-20T04:44:20.779Z,15.27
2019-06-20T04:47:01.538Z,15.32
2019-06-20T04:49:32.586Z,15.38
2019-06-20T04:52:03.541Z,15.40
2019-06-20T04:54:35.555Z,15.39
2019-06-20T04:57:06.240Z,15.35
2019-06-20T04:59:39.610Z,15.37
2019-06-20T05:02:14.869Z,15.36
2019-06-20T05:04:47.652Z,15.37
2019-06-20T05:07:20.900Z,15.27
2019-06-20T05:09:51.717Z,15.30
2019-06-20T05:12:27.385Z,15.31
2019-06-20T05:15:00.455Z,15.31
2019-06-20T05:17:31.061Z,15.40
2019-06-20T05:20:05.277Z,15.47
2019-06-20T05:22:36.742Z,15.47
2019-06-20T05:25:10.473Z,15.56
2019-06-20T05:27:41.002Z,15.67
2019-06-20T05:30:12.933Z,15.68
2019-06-20T05:32:43.093Z,15.85
2019-06-20T05:35:13.507Z,15.86
2019-06-20T05:37:43.697Z,15.77
2019-06-20T05:40:14.089Z,15.79
2019-06-20T05:42:46.757Z,15.72
2019-06-20T05:45:17.099Z,15.90
2019-06-20T05:47:47.303Z,16.01
2019-06-20T05:50:17.617Z,16.21
2019-06-20T05:52:50.143Z,16.13
2019-06-20T05:55:20.328Z,16.17
2019-06-20T05:57:50.479Z,16.13
2019-06-20T06:00:22.357Z,16.17
2019-06-20T06:02:52.597Z,16.31
2019-06-20T06:05:24.133Z,16.38
2019-06-20T06:07:54.279Z,16.08
2019-06-20T06:10:24.488Z,16.28
2019-06-20T06:12:54.688Z,16.14
2019-06-20T06:15:30.813Z,16.24
2019-06-20T06:18:01.171Z,16.23
2019-06-20T06:20:31.359Z,16.27
2019-06-20T06:23:01.599Z,16.43
2019-06-20T06:25:31.703Z,16.42
2019-06-20T06:28:01.827Z,16.37
2019-06-20T06:30:31.931Z,16.47
2019-06-20T06:33:02.131Z,16.72
2019-06-20T06:35:32.184Z,16.73
2019-06-20T06:38:02.380Z,16.76
2019-06-20T06:40:32.672Z,16.84
2019-06-20T06:43:02.835Z,17.00
2019-06-20T06:45:32.930Z,16.73
2019-06-20T06:48:03.116Z,16.83
2019-06-20T06:50:34.411Z,16.97
2019-06-20T06:53:04.521Z,16.92
2019-06-20T06:55:34.629Z,16.68
2019-06-20T06:58:04.786Z,16.88
2019-06-20T07:00:34.935Z,16.79
2019-06-20T07:03:05.865Z,16.93
2019-06-20T07:05:36.271Z,17.16
2019-06-20T07:08:06.678Z,17.45
2019-06-20T07:10:36.879Z,17.22
2019-06-20T07:13:07.616Z,17.43
2019-06-20T07:15:37.849Z,17.25
2019-06-20T07:18:09.601Z,17.04
2019-06-20T07:20:39.789Z,16.98
2019-06-20T07:23:12.666Z,17.06
2019-06-20T07:25:42.835Z,16.95
2019-06-20T07:28:12.942Z,16.78
2019-06-20T07:30:43.206Z,16.81
2019-06-20T07:33:13.327Z,16.75
2019-06-20T07:35:43.631Z,16.69
2019-06-20T07:38:13.859Z,16.62
2019-06-20T07:40:44.106Z,16.73
2019-06-20T07:43:14.239Z,16.62
2019-06-20T07:46:01.147Z,16.61
2019-06-20T07:48:16.385Z,16.64
2019-06-20T07:50:46.674Z,16.74
2019-06-20T07:53:16.887Z,16.91
2019-06-20T07:55:47.025Z,16.86
2019-06-20T07:58:17.301Z,17.23
2019-06-20T08:00:47.418Z,17.20
2019-06-20T08:03:17.743Z,17.30
2019-06-20T08:05:49.434Z,17.31
2019-06-20T08:08:21.599Z,17.27
2019-06-20T08:10:51.719Z,17.47
2019-06-20T08:13:21.862Z,17.40
2019-06-20T08:15:51.973Z,17.68
2019-06-20T08:18:22.129Z,17.21
2019-06-20T08:20:52.216Z,17.39
2019-06-20T08:23:22.387Z,17.23
2019-06-20T08:25:52.459Z,17.23
2019-06-20T08:28:22.692Z,17.42
2019-06-20T08:30:52.856Z,17.30
2019-06-20T08:33:23.066Z,17.33
2019-06-20T08:35:53.209Z,17.31
2019-06-20T08:38:24.457Z,17.24
2019-06-20T08:40:56.559Z,17.14
2019-06-20T08:44:20.155Z,16.99
2019-06-20T08:47:25.100Z,16.91
2019-06-20T08:49:58.165Z,16.54
2019-06-20T08:52:28.882Z,16.36
2019-06-20T08:54:59.612Z,16.24
2019-06-20T08:57:30.166Z,16.52
2019-06-20T09:00:00.770Z,16.64
2019-06-20T09:02:31.021Z,16.58
2019-06-20T09:07:31.393Z,16.68
2019-06-20T09:10:02.010Z,16.77
2019-06-20T09:12:32.358Z,17.01
2019-06-20T09:15:03.266Z,16.91
2019-06-20T09:17:34.979Z,17.05
2019-06-20T09:20:06.286Z,17.18
2019-06-20T09:22:36.514Z,17.08
2019-06-20T09:25:07.659Z,17.17
2019-06-20T09:27:37.853Z,17.39
2019-06-20T09:30:09.239Z,17.27
2019-06-20T09:32:39.421Z,17.12
2019-06-20T09:35:11.095Z,17.49
2019-06-20T09:37:41.348Z,17.59
2019-06-20T09:40:12.470Z,17.16
2019-06-20T09:42:42.791Z,17.11
2019-06-20T09:45:13.570Z,17.11
2019-06-20T09:47:45.780Z,17.02
2019-06-20T09:50:16.235Z,16.88
2019-06-20T09:52:49.789Z,17.30
2019-06-20T09:55:18.350Z,17.16
2019-06-20T09:57:49.111Z,17.42
2019-06-20T10:00:23.040Z,18.21
2019-06-20T10:02:55.393Z,18.73
2019-06-20T10:05:25.171Z,18.61
2019-06-20T10:07:56.691Z,18.26
2019-06-20T10:10:29.892Z,17.90
2019-06-20T10:13:00.283Z,17.83
2019-06-20T10:15:31.567Z,17.99
2019-06-20T10:18:04.284Z,17.82
2019-06-20T10:20:34.445Z,18.09
2019-06-20T10:23:04.752Z,17.98
2019-06-20T10:25:34.909Z,18.32
2019-06-20T10:28:06.748Z,18.27
2019-06-20T10:30:36.890Z,16.76
2019-06-20T10:33:07.138Z,16.47
2019-06-20T10:35:37.311Z,16.44
2019-06-20T10:38:07.507Z,16.03
2019-06-20T10:40:37.624Z,16.16
2019-06-20T10:43:07.792Z,15.86
2019-06-20T10:45:39.196Z,15.81
2019-06-20T10:48:09.487Z,15.90
2019-06-20T10:50:39.604Z,16.11
2019-06-20T10:53:11.496Z,16.22
2019-06-20T10:55:43.234Z,16.15
2019-06-20T10:58:15.086Z,16.44
2019-06-20T11:00:46.134Z,16.16
2019-06-20T11:03:16.279Z,16.33
2019-06-20T11:05:48.058Z,16.40
2019-06-20T11:08:18.389Z,16.38
2019-06-20T11:10:50.196Z,16.83
2019-06-20T11:13:35.949Z,16.52
2019-06-20T11:16:06.804Z,16.34
2019-06-20T11:18:37.371Z,16.53
2019-06-20T11:21:11.937Z,16.16
2019-06-20T11:23:43.016Z,16.42
2019-06-20T11:26:13.462Z,16.71
2019-06-20T11:28:46.847Z,16.48
2019-06-20T11:31:16.927Z,16.44
2019-06-20T11:33:48.421Z,16.41
2019-06-20T11:36:21.932Z,16.88
2019-06-20T11:38:52.238Z,16.43
2019-06-20T11:41:46.593Z,16.86
2019-06-20T11:44:17.025Z,17.02
2019-06-20T11:46:47.187Z,17.13
2019-06-20T11:49:17.325Z,17.44
2019-06-20T11:51:47.514Z,18.28
2019-06-20T11:54:17.965Z,18.19
2019-06-20T11:56:48.116Z,18.16
2019-06-20T11:59:18.293Z,18.02
2019-06-20T12:01:49.068Z,18.81
2019-06-20T12:04:20.402Z,19.02
2019-06-20T12:06:50.735Z,19.43
2019-06-20T12:09:21.099Z,19.57
2019-06-20T12:11:51.318Z,19.15
2019-06-20T12:14:21.546Z,19.49
2019-06-20T12:16:53.035Z,19.41
2019-06-20T12:19:23.258Z,19.41
2019-06-20T12:21:53.456Z,19.09
2019-06-20T12:24:23.639Z,19.49
2019-06-20T12:26:56.286Z,19.96
2019-06-20T12:29:26.507Z,20.25
2019-06-20T12:31:59.357Z,20.81
2019-06-20T12:34:30.736Z,20.46
2019-06-20T12:37:00.947Z,19.40
2019-06-20T12:39:31.097Z,19.34
2019-06-20T12:42:01.284Z,19.36
2019-06-20T12:44:31.443Z,18.96
2019-06-20T12:47:01.675Z,19.18
2019-06-20T12:49:33.374Z,20.19
2019-06-20T12:52:03.545Z,19.70
2019-06-20T12:54:34.750Z,19.03
2019-06-20T12:57:04.850Z,20.40
2019-06-20T12:59:34.970Z,19.30
2019-06-20T13:02:05.477Z,20.24
2019-06-20T13:04:38.232Z,20.22
2019-06-20T13:07:08.720Z,20.79
2019-06-20T13:09:40.748Z,20.08
2019-06-20T13:12:12.945Z,20.01
2019-06-20T13:14:45.637Z,20.49
2019-06-20T13:17:21.546Z,20.92
2019-06-20T13:19:52.494Z,20.54
2019-06-20T13:22:23.265Z,19.82
2019-06-20T13:24:53.511Z,20.14
2019-06-20T13:27:23.746Z,21.01
2019-06-20T13:29:54.064Z,21.61
2019-06-20T13:32:24.325Z,21.04
2019-06-20T13:34:54.520Z,20.65
2019-06-20T13:37:27.718Z,20.94
2019-06-20T13:39:57.866Z,20.36
2019-06-20T13:42:28.046Z,20.60
2019-06-20T13:44:58.271Z,20.97
2019-06-20T13:47:28.645Z,20.36
2019-06-20T13:49:58.886Z,20.79
2019-06-20T13:52:33.959Z,20.97
2019-06-20T13:55:03.985Z,21.05
2019-06-20T13:57:35.782Z,20.92
2019-06-20T14:00:07.131Z,20.74
2019-06-20T14:02:38.059Z,20.05
2019-06-20T14:05:10.106Z,20.08
2019-06-20T14:07:46.656Z,20.85
2019-06-20T14:10:13.508Z,20.67
2019-06-20T14:12:44.726Z,20.75
2019-06-20T14:15:15.505Z,21.31
2019-06-20T14:17:47.040Z,22.00
2019-06-20T14:20:23.751Z,20.73
2019-06-20T14:23:00.998Z,21.27
2019-06-20T14:25:34.265Z,22.29
2019-06-20T14:28:06.044Z,22.03
2019-06-20T14:30:36.276Z,21.72
2019-06-20T14:33:11.738Z,22.22
2019-06-20T14:35:43.558Z,21.05
2019-06-20T14:38:15.150Z,21.45
2019-06-20T14:40:50.423Z,21.84
2019-06-20T14:43:20.711Z,22.08
2019-06-20T14:45:51.215Z,21.85
2019-06-20T14:48:22.688Z,22.13
2019-06-20T14:50:55.499Z,22.22
2019-06-20T14:53:45.668Z,21.44
2019-06-20T14:56:16.075Z,22.78
2019-06-20T14:58:46.762Z,22.71
2019-06-20T15:01:20.348Z,22.92
2019-06-20T15:03:51.640Z,22.98
2019-06-20T15:06:22.175Z,23.47
2019-06-20T15:09:00.245Z,21.01
2019-06-20T15:11:28.207Z,22.12
2019-06-20T15:14:00.524Z,22.59
2019-06-20T15:16:33.799Z,22.53
2019-06-20T15:19:04.153Z,21.21
2019-06-20T15:21:36.003Z,21.53
2019-06-20T15:24:07.098Z,21.52
2019-06-20T15:26:37.489Z,22.12
2019-06-20T15:29:07.756Z,21.74
2019-06-20T15:31:38.078Z,22.91
2019-06-20T15:34:10.561Z,22.55
2019-06-20T15:36:40.862Z,23.17
2019-06-20T15:39:11.363Z,22.39
2019-06-20T15:41:42.156Z,23.62
2019-06-20T15:44:20.397Z,21.99
2019-06-20T15:46:55.287Z,20.70
2019-06-20T15:49:28.089Z,21.87
2019-06-20T15:52:03.874Z,21.60
2019-06-20T15:54:34.607Z,22.49
2019-06-20T15:57:06.992Z,21.83
2019-06-20T15:59:48.506Z,21.14
2019-06-20T16:02:22.889Z,21.00
2019-06-20T16:04:57.471Z,21.86
2019-06-20T16:07:31.550Z,20.99
2019-06-20T16:10:13.552Z,20.98
2019-06-20T16:12:47.547Z,20.13
2019-06-20T16:15:30.572Z,20.01
2019-06-20T16:18:01.039Z,20.33
2019-06-20T16:20:31.213Z,21.18
2019-06-20T16:23:03.169Z,20.20
2019-06-20T16:25:35.460Z,19.87
2019-06-20T16:28:05.823Z,20.09
2019-06-20T16:30:35.844Z,20.04
2019-06-20T16:33:06.182Z,20.22
2019-06-20T16:35:36.462Z,21.00
2019-06-20T16:38:06.675Z,21.12
2019-06-20T16:40:45.547Z,20.58
2019-06-20T16:43:15.792Z,21.69
2019-06-20T16:45:46.061Z,21.69
2019-06-20T16:48:17.834Z,21.53
2019-06-20T16:50:47.967Z,21.31
2019-06-20T16:53:19.783Z,21.87
2019-06-20T16:55:51.642Z,21.17
2019-06-20T16:58:23.082Z,21.66
2019-06-20T17:00:57.169Z,20.91
2019-06-20T17:03:40.792Z,21.44
2019-06-20T17:06:03.769Z,21.81
2019-06-20T17:08:34.020Z,22.06
2019-06-20T17:11:04.252Z,21.86
2019-06-20T17:13:51.372Z,21.44
2019-06-20T17:16:25.220Z,22.33
2019-06-20T17:19:00.211Z,21.91
2019-06-20T17:21:35.400Z,22.00
2019-06-20T17:24:04.763Z,21.68
2019-06-20T17:26:38.835Z,21.86
2019-06-20T17:30:13.564Z,22.36
2019-06-20T17:32:55.864Z,21.64
2019-06-20T17:35:25.483Z,20.95
2019-06-20T17:38:48.646Z,20.73
2019-06-20T17:46:15.872Z,19.80
2019-06-20T17:49:08.952Z,19.47
2019-06-20T17:52:11.630Z,19.50
2019-06-20T17:55:54.359Z,19.90
2019-06-20T17:58:43.552Z,19.61
2019-06-20T18:01:29.368Z,19.27
2019-06-20T18:04:45.047Z,18.74
2019-06-20T18:07:29.068Z,19.63
2019-06-20T18:12:05.932Z,19.15
2019-06-20T18:14:12.716Z,18.76
2019-06-20T18:17:14.832Z,18.77
2019-06-20T18:20:16.828Z,18.72
2019-06-20T18:26:22.620Z,18.75
2019-06-20T18:29:55.937Z,18.23
2019-06-20T18:32:35.426Z,18.46
2019-06-20T18:35:55.371Z,18.09
2019-06-20T18:38:46.456Z,18.16
2019-06-20T18:41:36.855Z,18.15
2019-06-20T18:44:14.286Z,17.39
2019-06-20T18:46:50.320Z,17.69
2019-06-20T18:49:22.488Z,17.76
2019-06-20T18:51:56.538Z,17.80
2019-06-20T18:54:28.543Z,17.38
2019-06-20T18:57:11.714Z,17.44
2019-06-20T18:59:45.090Z,17.32
2019-06-20T19:02:21.340Z,17.24
2019-06-20T19:05:06.779Z,16.96
2019-06-20T19:08:14.202Z,16.93
2019-06-20T19:11:09.764Z,16.81
2019-06-20T19:14:01.427Z,16.74
2019-06-20T19:16:41.150Z,17.10
2019-06-20T19:19:47.142Z,16.71
2019-06-20T19:22:42.487Z,16.80
2019-06-20T19:25:48.952Z,16.64
2019-06-20T19:28:48.997Z,16.73
2019-06-20T19:31:40.653Z,16.44
2019-06-20T19:34:38.283Z,16.66
2019-06-20T19:37:25.744Z,16.37
2019-06-20T19:40:03.149Z,16.47
2019-06-20T19:42:58.433Z,16.31
2019-06-20T19:45:40.791Z,16.24
2019-06-20T19:48:49.367Z,15.84
2019-06-20T19:51:44.976Z,15.93
2019-06-20T19:54:32.432Z,15.93
2019-06-20T19:57:36.358Z,15.78
2019-06-20T20:00:38.204Z,15.66
2019-06-20T20:03:20.826Z,15.75
2019-06-20T20:06:35.969Z,15.56
2019-06-20T20:08:58.228Z,15.38
2019-06-20T20:11:50.408Z,15.43
2019-06-20T20:14:45.875Z,15.47
2019-06-20T20:17:45.499Z,15.32
2019-06-20T20:20:29.390Z,15.33
2019-06-20T20:23:11.801Z,15.27
2019-06-20T20:25:48.959Z,15.27
2019-06-20T20:28:26.644Z,15.08
2019-06-20T20:31:26.270Z,15.26
2019-06-20T20:34:02.467Z,15.20
2019-06-20T20:36:46.599Z,15.03
2019-06-20T20:39:47.910Z,15.19
2019-06-20T20:42:29.264Z,14.92
2019-06-20T20:45:12.453Z,14.76
2019-06-20T20:47:56.318Z,14.75
2019-06-20T20:50:53.507Z,14.65
2019-06-20T20:53:22.995Z,14.62
2019-06-20T20:56:02.710Z,14.59
2019-06-20T20:58:45.787Z,14.72
2019-06-20T21:01:22.824Z,14.66
2019-06-20T21:03:53.658Z,14.52
2019-06-20T21:06:29.949Z,14.47
2019-06-20T21:09:01.787Z,14.43
2019-06-20T21:11:41.362Z,14.40
2019-06-20T21:14:12.044Z,14.36
2019-06-20T21:16:48.467Z,14.32
2019-06-20T21:19:20.860Z,14.39
2019-06-20T21:21:56.281Z,14.36
2019-06-20T21:24:30.065Z,14.26
2019-06-20T21:27:00.815Z,14.26
2019-06-20T21:29:33.054Z,14.21
2019-06-20T21:32:05.396Z,14.25
2019-06-20T21:34:36.066Z,14.22
2019-06-20T21:37:09.016Z,14.14
2019-06-20T21:39:42.521Z,14.02
2019-06-20T21:42:16.683Z,14.27
2019-06-20T21:44:49.969Z,14.04
2019-06-20T21:47:21.451Z,14.07
2019-06-20T21:49:56.724Z,14.03
2019-06-20T21:52:27.570Z,14.10
2019-06-20T21:54:58.030Z,14.01
2019-06-20T21:57:30.454Z,14.04
2019-06-20T22:00:07.584Z,14.06
2019-06-20T22:02:45.145Z,14.05
2019-06-20T22:05:19.835Z,14.17
2019-06-20T22:07:53.154Z,13.99
2019-06-20T22:10:26.476Z,14.00
2019-06-20T22:13:08.848Z,13.95
2019-06-20T22:15:41.222Z,13.94
2019-06-20T22:18:16.779Z,13.91
2019-06-20T22:20:50.879Z,13.91
2019-06-20T22:23:23.661Z,13.98
2019-06-20T22:25:55.727Z,13.87
2019-06-20T22:28:27.349Z,13.91
2019-06-20T22:31:00.993Z,13.93
2019-06-20T22:33:37.889Z,13.90
2019-06-20T22:36:14.619Z,13.87
2019-06-20T22:38:49.733Z,14.02
2019-06-20T22:41:27.353Z,14.02
2019-06-20T22:43:59.962Z,13.96
2019-06-20T22:46:34.095Z,13.99
2019-06-20T22:49:14.676Z,13.99
2019-06-20T22:51:42.908Z,14.09
2019-06-20T22:54:35.136Z,14.16
2019-06-20T22:57:19.446Z,14.02
2019-06-20T22:59:53.262Z,14.06
2019-06-20T23:02:28.189Z,13.99
2019-06-20T23:05:00.078Z,14.03
2019-06-20T23:07:54.567Z,13.95
2019-06-20T23:11:03.913Z,13.86
2019-06-20T23:13:43.838Z,13.82
2019-06-20T23:16:19.528Z,13.85
2019-06-20T23:18:50.710Z,13.87
2019-06-20T23:21:22.654Z,13.88
2019-06-20T23:23:57.073Z,13.89
2019-06-20T23:26:32.065Z,13.82
2019-06-20T23:29:25.350Z,13.83
2019-06-20T23:32:01.103Z,13.96
2019-06-20T23:34:35.335Z,13.83
2019-06-20T23:37:12.567Z,13.89
2019-06-20T23:39:46.250Z,13.90
2019-06-20T23:42:18.222Z,13.85
2019-06-20T23:44:52.462Z,13.80
2019-06-20T23:47:34.562Z,13.89
2019-06-20T23:50:10.323Z,13.84
2019-06-20T23:53:20.545Z,13.81
2019-06-20T23:55:52.845Z,13.81
2019-06-20T23:58:25.546Z,13.82
